< < Back
Terminal Aerodrome Forecast


Current Version              Previous Versions:   1  2  3  4  5  6  7  8  9  

Terminal Aerodrome Forecast

121
FTUS42 KMLB 270542
TAFDAB
TAF
KDAB 270542Z 2706/2806 VRB03KT P6SM FEW030 FEW250
     FM271700 06009KT P6SM VCTS SCT035CB BKN080
     FM272100 10008KT P6SM FEW080 SCT250
     FM280000 VRB03KT P6SM FEW250=



Latest METAR

863
SAUS80 KWBC 271400 RRC
MTRDAB
METAR KDAB 271353Z 30005KT 10SM FEW030 FEW070 29/23 A3008 RMK AO2 SLP187
T02890233


USA.gov is the U.S. government's official web portal to all federal, state and local government web resources and services.